Time;durP1;ratioP1;P1;durP2;ratioP2;P2;SDS_P1;SDS_P2;PMS_P1;PMS_P2;Temp;Humidity;BMP_temperature;BMP_pressure;BME280_temperature;BME280_humidity;BME280_pressure;Samples;Min_cycle;Max_cycle;Signal;HPM_P1;HPM_P2
2021/08/10 00:00:32;;;;;;;;;;;16.80;99.90;;;;;;6315176;28;20730;-72
2021/08/10 00:03:34;;;;;;;;;;;16.80;99.90;;;;;;6312577;28;19979;-72
2021/08/10 00:06:36;;;;;;;;;;;16.80;99.90;;;;;;6314304;28;20022;-72
2021/08/10 00:09:37;;;;;;;;;;;16.80;99.90;;;;;;6308543;28;19994;-72
2021/08/10 00:12:39;;;;;;;;;;;16.80;99.90;;;;;;6315336;28;19972;-72
2021/08/10 00:15:41;;;;;;;;;;;16.80;99.90;;;;;;6312522;28;19976;-72
2021/08/10 00:18:42;;;;;;;;;;;16.80;99.90;;;;;;6312786;28;20436;-72
2021/08/10 00:21:44;;;;;;;;;;;16.70;99.90;;;;;;6295898;28;19996;-72
2021/08/10 00:24:46;;;;;;;;;;;16.70;99.90;;;;;;6310009;28;20018;-72
2021/08/10 00:27:47;;;;;;;;;;;16.70;99.90;;;;;;6287823;28;20431;-72
2021/08/10 00:30:49;;;;;;;;;;;16.70;99.90;;;;;;6305268;28;19972;-73
2021/08/10 00:33:50;;;;;;;;;;;16.70;99.90;;;;;;6300824;28;19976;-72
2021/08/10 00:36:52;;;;;;;;;;;16.70;99.90;;;;;;6310759;28;20010;-72
2021/08/10 00:39:54;;;;;;;;;;;16.70;99.90;;;;;;6293395;28;19987;-72
2021/08/10 00:42:56;;;;;;;;;;;16.70;99.90;;;;;;6305013;28;19972;-73
2021/08/10 00:45:58;;;;;;;;;;;16.70;99.90;;;;;;6311131;28;19973;-72
2021/08/10 00:48:59;;;;;;;;;;;16.70;99.90;;;;;;6316882;28;20032;-72
2021/08/10 00:52:01;;;;;;;;;;;16.70;99.90;;;;;;6289678;28;19972;-72
2021/08/10 00:55:04;;;;;;;;;;;16.60;99.90;;;;;;6295043;28;19983;-72
2021/08/10 00:58:05;;;;;;;;;;;16.60;99.90;;;;;;6295509;28;19980;-72
2021/08/10 01:01:07;;;;;;;;;;;16.60;99.90;;;;;;6322858;28;19992;-72
2021/08/10 01:04:09;;;;;;;;;;;16.50;99.90;;;;;;6306220;28;19985;-72
2021/08/10 01:07:14;;;;;;;;;;;16.50;99.90;;;;;;6309594;28;19956;-72
2021/08/10 01:10:34;;;;;;;;;;;16.50;99.90;;;;;;6317255;28;19981;-72
2021/08/10 01:13:43;;;;;;;;;;;16.40;99.90;;;;;;6314563;28;20404;-72
2021/08/10 01:16:45;;;;;;;;;;;16.40;99.90;;;;;;6319716;28;19980;-72
2021/08/10 01:19:53;;;;;;;;;;;16.30;99.90;;;;;;6316654;28;20012;-72
2021/08/10 01:22:56;;;;;;;;;;;16.30;99.90;;;;;;6286302;28;20434;-73
2021/08/10 01:26:04;;;;;;;;;;;16.30;99.90;;;;;;6310289;28;20339;-72
2021/08/10 01:29:13;;;;;;;;;;;16.30;99.90;;;;;;6285951;28;19973;-72
2021/08/10 01:32:14;;;;;;;;;;;16.30;99.90;;;;;;6314229;28;19973;-72
2021/08/10 01:35:19;;;;;;;;;;;16.30;99.90;;;;;;6322077;28;20025;-72
2021/08/10 01:38:22;;;;;;;;;;;16.30;99.90;;;;;;6313444;28;20415;-72
2021/08/10 01:41:24;;;;;;;;;;;16.20;99.90;;;;;;6317532;28;20041;-72
2021/08/10 01:44:27;;;;;;;;;;;16.20;99.90;;;;;;6310947;28;20592;-72
2021/08/10 01:47:29;;;;;;;;;;;16.20;99.90;;;;;;6303400;28;20479;-72
2021/08/10 01:50:31;;;;;;;;;;;16.10;99.90;;;;;;6308963;28;19988;-72
2021/08/10 01:53:32;;;;;;;;;;;16.10;99.90;;;;;;6315303;28;20029;-72
2021/08/10 01:56:36;;;;;;;;;;;16.10;99.90;;;;;;6317910;28;19979;-72
2021/08/10 01:59:39;;;;;;;;;;;16.10;99.90;;;;;;6311086;28;19992;-72
2021/08/10 02:02:42;;;;;;;;;;;16.10;99.90;;;;;;6308694;28;20030;-72
2021/08/10 02:05:45;;;;;;;;;;;16.10;99.90;;;;;;6311056;28;19973;-71
2021/08/10 02:08:48;;;;;;;;;;;16.00;99.90;;;;;;6315552;28;19995;-72
2021/08/10 02:11:50;;;;;;;;;;;16.00;99.90;;;;;;6303387;28;20400;-72
2021/08/10 02:14:52;;;;;;;;;;;16.00;99.90;;;;;;6308614;28;19991;-72
2021/08/10 02:17:54;;;;;;;;;;;16.00;99.90;;;;;;6289873;28;20462;-72
2021/08/10 02:20:57;;;;;;;;;;;15.90;99.90;;;;;;6309873;28;20426;-72
2021/08/10 02:24:02;;;;;;;;;;;15.90;99.90;;;;;;6314276;28;20029;-72
2021/08/10 02:27:06;;;;;;;;;;;15.90;99.90;;;;;;6307222;28;20455;-71
2021/08/10 02:30:09;;;;;;;;;;;15.90;99.90;;;;;;6319063;28;20407;-71
2021/08/10 02:33:12;;;;;;;;;;;15.90;99.90;;;;;;6317784;28;20003;-71
2021/08/10 02:36:14;;;;;;;;;;;15.90;99.90;;;;;;6315329;28;20033;-71
2021/08/10 02:39:16;;;;;;;;;;;15.90;99.90;;;;;;6306931;28;19993;-71
2021/08/10 02:42:18;;;;;;;;;;;15.90;99.90;;;;;;6311391;28;19976;-71
2021/08/10 02:45:20;;;;;;;;;;;15.90;99.90;;;;;;6314057;28;20029;-71
2021/08/10 02:48:22;;;;;;;;;;;15.90;99.90;;;;;;6309914;28;19980;-72
2021/08/10 02:51:25;;;;;;;;;;;15.90;99.90;;;;;;6316747;28;19987;-71
2021/08/10 02:54:26;;;;;;;;;;;15.90;99.90;;;;;;6313917;28;20439;-71
2021/08/10 02:57:35;;;;;;;;;;;15.90;99.90;;;;;;6310279;28;19972;-72
2021/08/10 03:00:40;;;;;;;;;;;15.90;99.90;;;;;;6317764;28;19984;-71
2021/08/10 03:03:44;;;;;;;;;;;16.00;99.90;;;;;;6316535;28;20073;-72
2021/08/10 03:06:46;;;;;;;;;;;15.90;99.90;;;;;;6309967;28;19972;-71
2021/08/10 03:09:48;;;;;;;;;;;16.00;99.90;;;;;;6312447;28;20018;-72
2021/08/10 03:12:50;;;;;;;;;;;16.00;99.90;;;;;;6311531;28;20036;-71
2021/08/10 03:15:55;;;;;;;;;;;15.90;99.90;;;;;;6291459;28;20376;-72
2021/08/10 03:18:58;;;;;;;;;;;15.90;99.90;;;;;;6316285;28;20062;-72
2021/08/10 03:22:01;;;;;;;;;;;15.90;99.90;;;;;;6288955;28;19996;-71
2021/08/10 03:25:04;;;;;;;;;;;15.90;99.90;;;;;;6307379;28;20316;-71
2021/08/10 03:28:05;;;;;;;;;;;15.90;99.90;;;;;;6310609;28;19983;-72
2021/08/10 03:31:08;;;;;;;;;;;15.90;99.90;;;;;;6313959;28;19987;-71
2021/08/10 03:34:11;;;;;;;;;;;15.80;99.90;;;;;;6312622;28;19965;-72
2021/08/10 03:37:14;;;;;;;;;;;15.80;99.90;;;;;;6296992;28;20456;-72
2021/08/10 03:40:16;;;;;;;;;;;15.80;99.90;;;;;;6298104;28;19992;-72
2021/08/10 03:43:17;;;;;;;;;;;15.70;99.90;;;;;;6297994;28;19983;-71
2021/08/10 03:46:19;;;;;;;;;;;15.70;99.90;;;;;;6294497;28;20328;-72
2021/08/10 03:49:22;;;;;;;;;;;15.70;99.90;;;;;;6314068;28;20075;-71
2021/08/10 03:52:24;;;;;;;;;;;15.70;99.90;;;;;;6302191;28;19984;-71
2021/08/10 03:55:26;;;;;;;;;;;15.70;99.90;;;;;;6312123;28;20031;-71
2021/08/10 03:58:29;;;;;;;;;;;15.60;99.90;;;;;;6313134;28;19984;-72
2021/08/10 04:01:31;;;;;;;;;;;15.60;99.90;;;;;;6306167;28;19936;-71
2021/08/10 04:04:34;;;;;;;;;;;15.50;99.90;;;;;;6306457;28;19987;-71
2021/08/10 04:07:38;;;;;;;;;;;15.60;99.90;;;;;;6302635;28;19973;-72
2021/08/10 04:10:40;;;;;;;;;;;15.50;99.90;;;;;;6315814;28;20352;-71
2021/08/10 04:13:41;;;;;;;;;;;15.50;99.90;;;;;;6284964;28;19979;-71
2021/08/10 04:16:46;;;;;;;;;;;15.40;99.90;;;;;;6287233;28;19979;-71
2021/08/10 04:19:49;;;;;;;;;;;15.50;99.90;;;;;;6310894;28;20371;-71
2021/08/10 04:22:51;;;;;;;;;;;15.40;99.90;;;;;;6309796;28;19976;-71
2021/08/10 04:25:53;;;;;;;;;;;15.40;99.90;;;;;;6308663;28;19982;-71
2021/08/10 04:28:54;;;;;;;;;;;15.40;99.90;;;;;;6291437;28;20408;-71
2021/08/10 04:31:56;;;;;;;;;;;15.40;99.90;;;;;;6307416;28;19987;-70
2021/08/10 04:34:58;;;;;;;;;;;15.40;99.90;;;;;;6310140;28;19972;-72
2021/08/10 04:38:00;;;;;;;;;;;15.40;99.90;;;;;;6315181;28;19976;-71
2021/08/10 04:41:02;;;;;;;;;;;15.40;99.90;;;;;;6318459;28;19999;-71
2021/08/10 04:44:04;;;;;;;;;;;15.30;99.90;;;;;;6320696;28;20007;-71
2021/08/10 04:47:05;;;;;;;;;;;15.30;99.90;;;;;;6310764;28;19983;-71
2021/08/10 04:50:07;;;;;;;;;;;15.40;99.90;;;;;;6309478;28;19987;-71
2021/08/10 04:53:09;;;;;;;;;;;15.30;99.90;;;;;;6295538;28;19979;-71
2021/08/10 04:56:11;;;;;;;;;;;15.30;99.90;;;;;;6291196;28;19977;-71
2021/08/10 04:59:13;;;;;;;;;;;15.40;99.90;;;;;;6318344;28;20425;-71
2021/08/10 05:02:14;;;;;;;;;;;15.40;99.90;;;;;;6316662;28;19996;-71
2021/08/10 05:05:16;;;;;;;;;;;15.40;99.90;;;;;;6298365;28;19976;-71
2021/08/10 05:08:18;;;;;;;;;;;15.50;99.90;;;;;;6292818;28;19972;-72
2021/08/10 05:11:20;;;;;;;;;;;15.50;99.90;;;;;;6313197;28;19995;-71
2021/08/10 05:14:23;;;;;;;;;;;15.50;99.90;;;;;;6302381;28;20067;-72
2021/08/10 05:17:25;;;;;;;;;;;15.50;99.90;;;;;;6294712;28;19981;-72
2021/08/10 05:20:26;;;;;;;;;;;15.60;99.90;;;;;;6313099;28;20000;-72
2021/08/10 05:23:31;;;;;;;;;;;15.60;99.90;;;;;;6302783;28;20453;-72
2021/08/10 05:26:33;;;;;;;;;;;15.70;99.90;;;;;;6306306;28;20420;-72
2021/08/10 05:29:35;;;;;;;;;;;15.70;99.90;;;;;;6314979;28;19970;-72
2021/08/10 05:32:36;;;;;;;;;;;15.80;99.90;;;;;;6319087;28;20285;-72
2021/08/10 05:35:57;;;;;;;;;;;15.90;99.90;;;;;;6319188;28;20086;-72
2021/08/10 05:38:59;;;;;;;;;;;15.90;99.90;;;;;;6288412;28;19980;-72
2021/08/10 05:42:01;;;;;;;;;;;16.00;99.90;;;;;;6285428;28;19992;-71
2021/08/10 05:45:03;;;;;;;;;;;16.00;99.90;;;;;;6316776;28;19976;-71
2021/08/10 05:48:05;;;;;;;;;;;16.10;99.90;;;;;;6317767;28;19983;-71
2021/08/10 05:51:07;;;;;;;;;;;16.10;99.90;;;;;;6320169;28;20342;-72
2021/08/10 05:54:12;;;;;;;;;;;16.10;99.90;;;;;;6313385;28;19980;-72
2021/08/10 05:57:14;;;;;;;;;;;16.20;99.90;;;;;;6311114;28;20055;-71
2021/08/10 06:00:16;;;;;;;;;;;16.20;99.90;;;;;;6308460;28;19999;-71
2021/08/10 06:03:17;;;;;;;;;;;16.20;99.90;;;;;;6309731;28;19988;-72
2021/08/10 06:06:19;;;;;;;;;;;16.30;99.90;;;;;;6313898;28;20032;-72
2021/08/10 06:09:21;;;;;;;;;;;16.30;99.90;;;;;;6317358;28;19980;-72
2021/08/10 06:12:22;;;;;;;;;;;16.30;99.90;;;;;;6307735;28;20021;-71
2021/08/10 06:15:24;;;;;;;;;;;16.30;99.90;;;;;;6318165;28;19980;-71
2021/08/10 06:18:26;;;;;;;;;;;16.40;99.90;;;;;;6312757;28;19972;-71
2021/08/10 06:21:27;;;;;;;;;;;16.40;99.90;;;;;;6312581;28;19996;-72
2021/08/10 06:24:31;;;;;;;;;;;16.50;99.90;;;;;;6310113;28;20052;-72
2021/08/10 06:27:32;;;;;;;;;;;16.50;99.90;;;;;;6293335;28;20427;-71
2021/08/10 06:30:34;;;;;;;;;;;16.50;99.90;;;;;;6288054;28;19972;-71
2021/08/10 06:33:36;;;;;;;;;;;16.50;99.90;;;;;;6307442;28;20001;-71
2021/08/10 06:36:39;;;;;;;;;;;16.50;99.90;;;;;;6302685;28;19976;-72
2021/08/10 06:39:40;;;;;;;;;;;16.50;99.90;;;;;;6312471;28;19980;-71
2021/08/10 06:42:42;;;;;;;;;;;16.50;99.90;;;;;;6314950;28;20428;-71
2021/08/10 06:45:44;;;;;;;;;;;16.60;99.90;;;;;;6286452;28;19987;-72
2021/08/10 06:48:45;;;;;;;;;;;16.60;99.90;;;;;;6311873;28;19980;-71
2021/08/10 06:51:47;;;;;;;;;;;16.60;99.90;;;;;;6291108;28;19972;-71
2021/08/10 06:54:49;;;;;;;;;;;16.60;99.90;;;;;;6314860;28;19976;-72
2021/08/10 06:57:50;;;;;;;;;;;16.60;99.90;;;;;;6317436;28;20841;-71
2021/08/10 07:00:52;;;;;;;;;;;16.70;99.90;;;;;;6312828;28;19995;-71
2021/08/10 07:03:54;;;;;;;;;;;16.70;99.90;;;;;;6309302;28;20169;-71
2021/08/10 07:06:56;;;;;;;;;;;16.70;99.90;;;;;;6308685;28;19980;-71
2021/08/10 07:09:57;;;;;;;;;;;16.70;99.90;;;;;;6309710;28;20427;-71
2021/08/10 07:13:06;;;;;;;;;;;16.70;99.90;;;;;;6326026;27;19998;-71
2021/08/10 07:16:08;;;;;;;;;;;16.70;99.90;;;;;;6338444;28;20027;-72
2021/08/10 07:19:13;;;;;;;;;;;16.70;99.90;;;;;;6333930;28;19972;-72
2021/08/10 07:22:14;;;;;;;;;;;16.70;99.90;;;;;;6334701;28;19979;-71
2021/08/10 07:25:33;;;;;;;;;;;16.80;99.90;;;;;;6334992;28;20407;-71
2021/08/10 07:28:35;;;;;;;;;;;16.70;99.90;;;;;;6333536;28;19979;-71
2021/08/10 07:31:37;;;;;;;;;;;16.80;99.90;;;;;;6332071;28;19987;-71
2021/08/10 07:34:38;;;;;;;;;;;16.80;99.90;;;;;;6333060;28;20215;-71
2021/08/10 07:37:49;;;;;;;;;;;16.80;99.90;;;;;;6333293;28;20534;-70
2021/08/10 07:40:51;;;;;;;;;;;17.00;99.90;;;;;;6339663;28;20098;-71
2021/08/10 07:43:52;;;;;;;;;;;17.10;99.90;;;;;;6335795;28;19975;-71
2021/08/10 07:46:54;;;;;;;;;;;17.20;99.90;;;;;;6336620;28;20327;-71
2021/08/10 07:49:55;;;;;;;;;;;17.30;99.90;;;;;;6337243;28;19972;-71
2021/08/10 07:52:57;;;;;;;;;;;17.30;99.90;;;;;;6337160;28;19999;-71
2021/08/10 07:55:59;;;;;;;;;;;17.40;99.90;;;;;;6334166;28;19972;-71
2021/08/10 07:59:00;;;;;;;;;;;17.40;99.90;;;;;;6332903;28;20414;-71
2021/08/10 08:02:02;;;;;;;;;;;17.50;99.90;;;;;;6328277;28;20331;-71
2021/08/10 08:05:04;;;;;;;;;;;17.50;99.90;;;;;;6334642;28;20034;-71
2021/08/10 08:08:06;;;;;;;;;;;17.60;99.90;;;;;;6334725;28;19976;-71
2021/08/10 08:11:07;;;;;;;;;;;17.70;99.90;;;;;;6333040;28;19996;-71
2021/08/10 08:14:09;;;;;;;;;;;17.80;99.90;;;;;;6334429;28;20372;-71
2021/08/10 08:17:12;;;;;;;;;;;17.80;99.90;;;;;;6325446;28;20449;-71
2021/08/10 08:20:14;;;;;;;;;;;17.70;99.90;;;;;;6333054;28;20011;-71
2021/08/10 08:23:16;;;;;;;;;;;17.70;99.90;;;;;;6319401;28;19980;-71
2021/08/10 08:26:19;;;;;;;;;;;17.70;99.90;;;;;;6312288;28;20314;-71
2021/08/10 08:29:20;;;;;;;;;;;17.80;99.90;;;;;;6314942;28;19980;-71
2021/08/10 08:32:22;;;;;;;;;;;17.80;99.90;;;;;;6312308;28;19992;-71
2021/08/10 08:35:23;;;;;;;;;;;17.80;99.90;;;;;;6317425;28;19987;-70
2021/08/10 08:38:25;;;;;;;;;;;17.90;99.90;;;;;;6322184;28;19988;-71
2021/08/10 08:41:27;;;;;;;;;;;17.90;99.90;;;;;;6316773;28;19983;-71
2021/08/10 08:44:34;;;;;;;;;;;18.00;99.90;;;;;;6318490;28;19976;-71
2021/08/10 08:47:38;;;;;;;;;;;18.00;99.90;;;;;;6320598;28;20094;-71
2021/08/10 08:50:40;;;;;;;;;;;18.00;99.90;;;;;;6304217;28;20195;-71
2021/08/10 08:54:02;;;;;;;;;;;18.00;99.90;;;;;;6314220;28;19977;-71
2021/08/10 08:57:04;;;;;;;;;;;18.10;99.90;;;;;;6315342;28;19980;-71
2021/08/10 09:00:06;;;;;;;;;;;18.20;99.90;;;;;;6318946;28;20017;-72
2021/08/10 09:03:08;;;;;;;;;;;18.20;99.90;;;;;;6317887;28;19984;-72
2021/08/10 09:06:10;;;;;;;;;;;18.20;99.90;;;;;;6318432;28;19976;-71
2021/08/10 09:09:21;;;;;;;;;;;18.30;99.90;;;;;;6319059;28;19983;-71
2021/08/10 09:12:23;;;;;;;;;;;18.40;99.90;;;;;;6312044;28;20749;-72
2021/08/10 09:15:37;;;;;;;;;;;18.30;99.90;;;;;;6328294;27;19980;-71
2021/08/10 09:18:39;;;;;;;;;;;18.30;99.90;;;;;;6301297;28;19977;-71
2021/08/10 09:21:41;;;;;;;;;;;18.30;99.90;;;;;;6302824;28;20458;-71
2021/08/10 09:24:53;;;;;;;;;;;18.30;99.90;;;;;;6306848;28;21006;-71
2021/08/10 09:28:08;;;;;;;;;;;18.20;99.90;;;;;;6308065;28;20539;-71
2021/08/10 09:31:29;;;;;;;;;;;18.20;99.90;;;;;;6304634;28;19972;-72
2021/08/10 09:34:30;;;;;;;;;;;18.10;99.90;;;;;;6299714;28;20514;-71
2021/08/10 09:37:32;;;;;;;;;;;18.00;99.90;;;;;;6303576;28;20367;-72
2021/08/10 09:40:41;;;;;;;;;;;17.90;99.90;;;;;;6296873;28;19977;-72
2021/08/10 09:43:43;;;;;;;;;;;17.90;99.90;;;;;;6308310;28;20397;-71
2021/08/10 09:46:46;;;;;;;;;;;17.80;99.90;;;;;;6314974;28;19972;-71
2021/08/10 09:49:48;;;;;;;;;;;17.80;99.90;;;;;;6311645;28;19972;-71
2021/08/10 09:52:50;;;;;;;;;;;17.80;99.90;;;;;;6315398;28;19992;-71
2021/08/10 09:55:56;;;;;;;;;;;17.80;99.90;;;;;;6314294;28;20025;-71
2021/08/10 09:58:59;;;;;;;;;;;17.90;99.90;;;;;;6317236;28;19972;-71
2021/08/10 10:02:00;;;;;;;;;;;18.00;99.90;;;;;;6309857;28;19976;-71
2021/08/10 10:05:03;;;;;;;;;;;18.10;99.90;;;;;;6310573;28;19976;-71
2021/08/10 10:08:14;;;;;;;;;;;18.30;99.90;;;;;;6313975;28;19960;-71
2021/08/10 10:11:16;;;;;;;;;;;18.50;99.90;;;;;;6303292;28;20459;-69
2021/08/10 10:14:19;;;;;;;;;;;18.50;99.90;;;;;;6314098;28;19972;-71
2021/08/10 10:17:22;;;;;;;;;;;18.60;99.90;;;;;;6310364;28;20304;-70
2021/08/10 10:20:24;;;;;;;;;;;18.70;99.90;;;;;;6304704;28;19980;-71
2021/08/10 10:23:27;;;;;;;;;;;18.80;99.90;;;;;;6316360;28;19984;-71
2021/08/10 10:26:30;;;;;;;;;;;18.80;99.90;;;;;;6314698;28;19977;-71
2021/08/10 10:29:32;;;;;;;;;;;18.80;99.90;;;;;;6315868;28;21212;-71
2021/08/10 10:32:34;;;;;;;;;;;18.80;99.90;;;;;;6311526;28;19988;-71
2021/08/10 10:35:35;;;;;;;;;;;18.70;99.90;;;;;;6310475;28;19977;-72
2021/08/10 10:38:40;;;;;;;;;;;18.80;99.90;;;;;;6312771;28;19980;-72
2021/08/10 10:41:42;;;;;;;;;;;18.70;99.90;;;;;;6309063;28;20388;-71
2021/08/10 10:44:45;;;;;;;;;;;18.80;99.90;;;;;;6313840;28;20044;-71
2021/08/10 10:47:47;;;;;;;;;;;18.80;99.90;;;;;;6313235;28;20385;-71
2021/08/10 10:51:01;;;;;;;;;;;18.90;99.90;;;;;;6307589;28;19972;-71
2021/08/10 10:54:23;;;;;;;;;;;18.90;99.90;;;;;;6316283;28;19976;-71
2021/08/10 10:57:33;;;;;;;;;;;19.00;99.90;;;;;;6306011;28;19979;-71
2021/08/10 11:00:35;;;;;;;;;;;19.10;99.90;;;;;;6312859;28;19993;-71
2021/08/10 11:03:37;;;;;;;;;;;19.10;99.90;;;;;;6310972;28;19972;-70
2021/08/10 11:06:43;;;;;;;;;;;19.10;99.90;;;;;;6338586;27;19990;-71
2021/08/10 11:09:48;;;;;;;;;;;19.20;99.90;;;;;;6310790;28;19981;-71
2021/08/10 11:12:49;;;;;;;;;;;19.20;99.90;;;;;;6305394;28;21256;-71
2021/08/10 11:15:51;;;;;;;;;;;19.20;99.90;;;;;;6305489;28;20358;-71
2021/08/10 11:19:13;;;;;;;;;;;19.30;99.90;;;;;;6304512;28;20490;-71
2021/08/10 11:22:14;;;;;;;;;;;19.20;99.90;;;;;;6313942;28;19985;-71
2021/08/10 11:25:21;;;;;;;;;;;19.20;99.90;;;;;;6312053;28;19980;-71
2021/08/10 11:28:27;;;;;;;;;;;19.20;99.90;;;;;;6310630;28;19981;-71
2021/08/10 11:31:36;;;;;;;;;;;19.20;99.90;;;;;;6307079;28;20038;-71
2021/08/10 11:34:38;;;;;;;;;;;19.20;99.90;;;;;;6310239;28;20394;-71
2021/08/10 11:37:39;;;;;;;;;;;19.20;99.90;;;;;;6307946;28;19995;-71
2021/08/10 11:40:47;;;;;;;;;;;19.20;99.90;;;;;;6312063;28;19972;-71
2021/08/10 11:43:50;;;;;;;;;;;19.20;99.90;;;;;;6322424;28;19983;-71
2021/08/10 11:46:52;;;;;;;;;;;19.10;99.90;;;;;;6311346;28;19984;-71
2021/08/10 11:49:54;;;;;;;;;;;19.20;99.90;;;;;;6313278;28;20552;-71
2021/08/10 11:52:56;;;;;;;;;;;19.30;99.90;;;;;;6301377;28;20443;-71
2021/08/10 11:55:58;;;;;;;;;;;19.40;99.90;;;;;;6309588;28;19987;-71
2021/08/10 11:59:00;;;;;;;;;;;19.50;99.90;;;;;;6314451;28;22024;-71
2021/08/10 12:02:02;;;;;;;;;;;19.70;99.90;;;;;;6315579;28;19984;-71
2021/08/10 12:05:06;;;;;;;;;;;19.80;99.90;;;;;;6321382;28;19972;-71
2021/08/10 12:08:08;;;;;;;;;;;19.80;99.90;;;;;;6317723;28;20447;-71
2021/08/10 12:11:10;;;;;;;;;;;20.00;99.90;;;;;;6316623;28;20033;-71
2021/08/10 12:14:13;;;;;;;;;;;20.10;99.90;;;;;;6321643;28;19984;-71
2021/08/10 12:17:15;;;;;;;;;;;20.20;99.90;;;;;;6317710;28;20028;-71
2021/08/10 12:20:17;;;;;;;;;;;20.40;99.90;;;;;;6338597;27;19973;-71
2021/08/10 12:23:18;;;;;;;;;;;20.50;99.90;;;;;;6309879;28;20400;-71
2021/08/10 12:26:21;;;;;;;;;;;20.60;99.90;;;;;;6309580;28;19977;-71
2021/08/10 12:29:34;;;;;;;;;;;20.60;99.90;;;;;;6313957;28;19995;-71
2021/08/10 12:32:36;;;;;;;;;;;20.70;99.90;;;;;;6315126;28;20475;-71
2021/08/10 12:35:38;;;;;;;;;;;20.80;99.90;;;;;;6346200;27;19976;-71
2021/08/10 12:38:40;;;;;;;;;;;20.80;99.90;;;;;;6318605;28;19999;-71
2021/08/10 12:41:52;;;;;;;;;;;20.60;99.90;;;;;;6311598;28;19976;-71
2021/08/10 12:44:54;;;;;;;;;;;20.50;99.90;;;;;;6320101;28;19976;-71
2021/08/10 12:47:56;;;;;;;;;;;20.30;99.90;;;;;;6314530;28;19987;-71
2021/08/10 12:51:01;;;;;;;;;;;20.30;99.90;;;;;;6310903;28;20427;-71
2021/08/10 12:54:12;;;;;;;;;;;20.30;99.90;;;;;;6312310;28;20015;-71
2021/08/10 12:57:16;;;;;;;;;;;20.30;99.90;;;;;;6315656;28;19976;-71
2021/08/10 13:00:19;;;;;;;;;;;20.30;99.90;;;;;;6312876;28;19972;-71
2021/08/10 13:03:21;;;;;;;;;;;20.30;99.90;;;;;;6316775;28;20419;-71
2021/08/10 13:06:24;;;;;;;;;;;20.40;99.90;;;;;;6314247;28;20007;-71
2021/08/10 13:09:25;;;;;;;;;;;20.50;99.90;;;;;;6319019;28;20018;-71
2021/08/10 13:12:28;;;;;;;;;;;20.60;99.90;;;;;;6321691;28;19996;-71
2021/08/10 13:15:59;;;;;;;;;;;20.80;99.90;;;;;;6309502;28;19983;-72
2021/08/10 13:19:08;;;;;;;;;;;20.90;99.90;;;;;;6317252;27;19964;-71
2021/08/10 13:22:10;;;;;;;;;;;21.00;99.90;;;;;;6314004;28;19984;-71
2021/08/10 13:25:13;;;;;;;;;;;21.10;99.90;;;;;;6313225;28;19979;-71
2021/08/10 13:28:15;;;;;;;;;;;21.20;99.90;;;;;;6320448;28;19987;-71
2021/08/10 13:31:18;;;;;;;;;;;21.20;99.90;;;;;;6309805;28;19980;-72
2021/08/10 13:34:20;;;;;;;;;;;21.20;99.90;;;;;;6311953;28;19988;-71
2021/08/10 13:37:22;;;;;;;;;;;21.20;99.90;;;;;;6317499;28;19976;-71
2021/08/10 13:40:24;;;;;;;;;;;21.30;99.90;;;;;;6315249;28;20075;-71
2021/08/10 13:43:25;;;;;;;;;;;21.30;99.90;;;;;;6314345;28;19991;-71
2021/08/10 13:46:30;;;;;;;;;;;21.30;99.90;;;;;;6315552;28;20389;-71
2021/08/10 13:49:32;;;;;;;;;;;21.40;99.90;;;;;;6316762;28;20022;-71
2021/08/10 13:52:33;;;;;;;;;;;21.40;99.90;;;;;;6315861;28;19998;-72
2021/08/10 13:55:36;;;;;;;;;;;21.30;99.90;;;;;;6319462;28;19986;-71
2021/08/10 13:58:37;;;;;;;;;;;21.30;99.90;;;;;;6320030;28;19972;-71
2021/08/10 14:01:53;;;;;;;;;;;21.40;99.90;;;;;;6312422;28;19963;-71
2021/08/10 14:04:55;;;;;;;;;;;21.40;99.90;;;;;;6307841;28;20008;-71
2021/08/10 14:07:56;;;;;;;;;;;21.50;99.90;;;;;;6315155;28;19976;-72
2021/08/10 14:10:58;;;;;;;;;;;21.50;99.90;;;;;;6307152;28;19992;-71
2021/08/10 14:13:59;;;;;;;;;;;21.60;99.90;;;;;;6310639;28;20075;-71
2021/08/10 14:17:01;;;;;;;;;;;21.60;99.90;;;;;;6305217;28;20435;-71
2021/08/10 14:20:04;;;;;;;;;;;21.70;99.90;;;;;;6300246;28;19980;-69
2021/08/10 14:23:06;;;;;;;;;;;21.70;99.90;;;;;;6305415;28;20296;-69
2021/08/10 14:26:08;;;;;;;;;;;21.70;99.90;;;;;;6314143;28;20311;-71
2021/08/10 14:29:09;;;;;;;;;;;21.70;99.90;;;;;;6318671;28;19979;-71
2021/08/10 14:32:11;;;;;;;;;;;21.60;99.90;;;;;;6309651;28;20008;-72
2021/08/10 14:35:13;;;;;;;;;;;21.50;99.90;;;;;;6305808;28;20541;-71
2021/08/10 14:38:17;;;;;;;;;;;21.50;99.90;;;;;;6307916;28;19944;-71
2021/08/10 14:41:19;;;;;;;;;;;21.50;99.90;;;;;;6314503;28;20324;-71
2021/08/10 14:44:20;;;;;;;;;;;21.60;99.90;;;;;;6310413;28;19987;-71
2021/08/10 14:47:22;;;;;;;;;;;21.60;99.90;;;;;;6306140;28;20038;-71
2021/08/10 14:50:24;;;;;;;;;;;21.70;99.90;;;;;;6313045;28;19976;-71
2021/08/10 14:53:27;;;;;;;;;;;21.70;99.90;;;;;;6309888;28;19992;-71
2021/08/10 14:56:29;;;;;;;;;;;21.80;99.90;;;;;;6305490;28;19973;-71
2021/08/10 14:59:30;;;;;;;;;;;21.80;99.90;;;;;;6304681;28;20389;-71
2021/08/10 15:02:32;;;;;;;;;;;21.70;99.90;;;;;;6306599;28;19972;-73
2021/08/10 15:05:35;;;;;;;;;;;21.70;99.90;;;;;;6306813;28;19988;-72
2021/08/10 15:08:36;;;;;;;;;;;21.60;99.90;;;;;;6308791;28;19987;-71
2021/08/10 15:11:38;;;;;;;;;;;21.70;99.90;;;;;;6312924;28;19992;-69
2021/08/10 15:14:53;;;;;;;;;;;21.80;99.90;;;;;;6314966;28;20557;-72
2021/08/10 15:17:55;;;;;;;;;;;21.90;99.90;;;;;;6300977;28;20668;-71
2021/08/10 15:20:57;;;;;;;;;;;21.80;99.90;;;;;;6287083;28;19983;-72
2021/08/10 15:23:58;;;;;;;;;;;21.80;99.90;;;;;;6287913;28;21124;-71
2021/08/10 15:27:01;;;;;;;;;;;21.70;99.90;;;;;;6289899;28;19998;-71
2021/08/10 15:30:03;;;;;;;;;;;21.70;99.90;;;;;;6287102;28;19987;-72
2021/08/10 15:33:05;;;;;;;;;;;21.80;99.90;;;;;;6291294;28;19995;-71
2021/08/10 15:36:06;;;;;;;;;;;21.90;99.90;;;;;;6289072;28;20432;-72
2021/08/10 15:39:08;;;;;;;;;;;22.00;99.90;;;;;;6289948;28;20110;-71
2021/08/10 15:42:10;;;;;;;;;;;22.20;99.90;;;;;;6290429;28;20011;-72
2021/08/10 15:45:11;;;;;;;;;;;22.30;99.90;;;;;;6293911;28;20025;-71
2021/08/10 15:48:13;;;;;;;;;;;22.40;99.90;;;;;;6299728;28;20864;-72
2021/08/10 15:51:15;;;;;;;;;;;22.40;99.90;;;;;;6298950;28;20606;-71
2021/08/10 15:54:16;;;;;;;;;;;22.50;99.90;;;;;;6294066;28;20079;-71
2021/08/10 15:57:18;;;;;;;;;;;22.50;99.90;;;;;;6292232;28;19976;-72
2021/08/10 16:00:20;;;;;;;;;;;22.60;99.90;;;;;;6291519;28;19972;-72
2021/08/10 16:03:21;;;;;;;;;;;22.60;99.90;;;;;;6287718;28;19981;-72
2021/08/10 16:06:23;;;;;;;;;;;22.70;99.90;;;;;;6289535;28;20092;-72
2021/08/10 16:09:25;;;;;;;;;;;22.50;99.90;;;;;;6290539;28;19983;-72
2021/08/10 16:12:27;;;;;;;;;;;22.40;99.90;;;;;;6290939;28;22267;-72
2021/08/10 16:15:28;;;;;;;;;;;22.30;99.90;;;;;;6292042;28;19973;-71
2021/08/10 16:18:30;;;;;;;;;;;22.60;99.90;;;;;;6289937;28;19980;-72
2021/08/10 16:21:32;;;;;;;;;;;22.70;99.90;;;;;;6319613;27;19977;-71
2021/08/10 16:24:33;;;;;;;;;;;22.90;99.90;;;;;;6291695;28;19980;-72
2021/08/10 16:27:36;;;;;;;;;;;23.00;99.90;;;;;;6304911;28;20412;-72
2021/08/10 16:30:37;;;;;;;;;;;23.10;99.90;;;;;;6291865;28;19976;-72
2021/08/10 16:33:39;;;;;;;;;;;23.10;99.90;;;;;;6293344;28;20081;-72
2021/08/10 16:36:41;;;;;;;;;;;23.10;99.90;;;;;;6291871;28;19979;-72
2021/08/10 16:39:43;;;;;;;;;;;23.20;99.90;;;;;;6292014;28;19980;-71
2021/08/10 16:42:44;;;;;;;;;;;23.20;99.90;;;;;;6294040;28;19980;-72
2021/08/10 16:45:46;;;;;;;;;;;23.30;99.90;;;;;;6294218;28;19984;-72
2021/08/10 16:48:48;;;;;;;;;;;23.30;99.90;;;;;;6293055;28;19979;-72
2021/08/10 16:51:49;;;;;;;;;;;23.40;99.90;;;;;;6289080;28;20019;-72
2021/08/10 16:54:51;;;;;;;;;;;23.50;99.90;;;;;;6294430;28;20045;-73
2021/08/10 16:57:52;;;;;;;;;;;23.50;99.90;;;;;;6290490;28;20011;-72
2021/08/10 17:00:54;;;;;;;;;;;23.50;99.90;;;;;;6288138;28;20044;-72
2021/08/10 17:03:56;;;;;;;;;;;23.40;99.90;;;;;;6290012;28;20319;-72
2021/08/10 17:06:58;;;;;;;;;;;23.30;99.90;;;;;;6293552;28;19987;-72
2021/08/10 17:09:59;;;;;;;;;;;23.20;99.90;;;;;;6291077;28;19999;-72
2021/08/10 17:13:01;;;;;;;;;;;23.20;99.90;;;;;;6293916;28;20023;-72
2021/08/10 17:16:03;;;;;;;;;;;23.20;99.90;;;;;;6290822;28;19977;-72
2021/08/10 17:19:05;;;;;;;;;;;23.10;99.90;;;;;;6291676;28;20403;-72
2021/08/10 17:22:07;;;;;;;;;;;23.00;99.90;;;;;;6288446;28;20449;-72
2021/08/10 17:25:09;;;;;;;;;;;22.90;99.90;;;;;;6290219;28;19973;-72
2021/08/10 17:28:10;;;;;;;;;;;22.80;99.90;;;;;;6293380;28;20443;-72
2021/08/10 17:31:12;;;;;;;;;;;22.80;99.90;;;;;;6287692;28;19980;-72
2021/08/10 17:34:14;;;;;;;;;;;22.70;99.90;;;;;;6288522;28;19956;-72
2021/08/10 17:37:15;;;;;;;;;;;22.70;99.90;;;;;;6290657;28;19999;-72
2021/08/10 17:40:17;;;;;;;;;;;22.60;99.90;;;;;;6290315;28;20034;-73
2021/08/10 17:43:19;;;;;;;;;;;22.50;99.90;;;;;;6294076;28;20077;-72